< < Back
Terminal Aerodrome Forecast


Current Version              Previous Versions:   1  2  3  4  5  6  7  8  9  

Terminal Aerodrome Forecast

518
FTUS42 KILM 252328
TAFILM
TAF
KILM 252328Z 2600/2624 15008KT P6SM FEW040
      TEMPO 2609/2611 5SM BR SCT007
     FM261300 VRB04KT P6SM SCT050 SCT100
     FM261700 15011G18KT P6SM SCT120 SCT250=



Latest METAR

760
SAUS70 KWBC 261400 RRF
MTRILM
METAR KILM 261353Z 13008KT 10SM BKN021 BKN026 OVC041 26/21 A3031 RMK AO2
SLP265 T02560206


USA.gov is the U.S. government's official web portal to all federal, state and local government web resources and services.